»·PEaware :: SWA2445 KABQ-KLAS

SWA2445 :: KABQ-KLAS

FLIGHT INFORMATION

Flight Status: Arrived
Operator:
Southwest Airlines
More flights by this operator :: More flights under this callsign
Pilot: Ben L. (6391)
Aircraft: BOEING 737-800
(B738)
More flights by this aircraft type
Origin: KABQ Albuquerque Intl Sunport
United States
Destination: KLAS McCarran Intl
United States
More flights between these airports :: More routes between these airports
Route: +RDRNR3 GUP J72 PGS TYSSN5
File this flight plan on PilotEdge
Remarks:
Altitude:
(Current/Filed)
36,000ft
Speed:
(Current/Filed)
470kts
Departed: 06-May-18 02:20 PM
Arrived: 06-May-18 03:33 PM
Distance/Time
Traveled:
421nm/1:13
Distance/Time
To Go:
Arrived

Flight Plot

Page will automatically refresh every two minutes.

Flight plan parsing failed; only flown route is shown


Map Options




Map Legend


Flown Route
Filed Route
Departure Airport
Arrival Airport
Navaid (VOR, NDB)
Fix

Horizontal Profiles

Position Reports

Time Latitude Longitude Heading Altitude Ground
Speed
06-May-18 13:45 35.047007 -106.614008 309 5362ft 0kts
06-May-18 13:46 35.047007 -106.614008 309 5362ft 0kts
06-May-18 13:47 35.047007 -106.614008 309 5362ft 0kts
06-May-18 13:48 35.047007 -106.614008 310 5362ft 0kts
06-May-18 13:49 35.047007 -106.614008 309 5362ft 0kts
06-May-18 13:50 35.047007 -106.614008 310 5362ft 0kts
06-May-18 13:51 35.047007 -106.614008 310 5362ft 0kts
06-May-18 13:52 35.047007 -106.614008 310 5362ft 0kts
06-May-18 13:53 35.047007 -106.614008 309 5362ft 0kts
06-May-18 13:54 35.047007 -106.614008 309 5362ft 0kts
06-May-18 13:55 35.047007 -106.614008 309 5362ft 0kts
06-May-18 13:56 35.047007 -106.614008 310 5362ft 0kts
06-May-18 13:57 35.047007 -106.614008 309 5362ft 0kts
06-May-18 13:58 35.047007 -106.614008 309 5362ft 0kts
06-May-18 13:59 35.047007 -106.614008 310 5362ft 0kts
06-May-18 14:00 35.047007 -106.614008 310 5362ft 0kts
06-May-18 14:01 35.047007 -106.614008 309 5362ft 0kts
06-May-18 14:02 35.047007 -106.614008 309 5362ft 0kts
06-May-18 14:03 35.047007 -106.614008 309 5362ft 0kts
06-May-18 14:04 35.047007 -106.614008 309 5362ft 0kts
06-May-18 14:05 35.047007 -106.614008 309 5362ft 0kts
06-May-18 14:06 35.046886 -106.613536 258 5362ft 2kts
06-May-18 14:07 35.047296 -106.613082 183 5362ft 1kts
06-May-18 14:08 35.047371 -106.613083 179 5362ft 0kts
06-May-18 14:09 35.047371 -106.613082 179 5362ft 0kts
06-May-18 14:10 35.047371 -106.613082 179 5362ft 0kts
06-May-18 14:11 35.047371 -106.613082 179 5362ft 0kts
06-May-18 14:12 35.047371 -106.613082 179 5362ft 0kts
06-May-18 14:13 35.047371 -106.613082 179 5362ft 0kts
06-May-18 14:14 35.047371 -106.613082 179 5362ft 0kts
06-May-18 14:15 35.046133 -106.613610 192 5362ft 0kts
06-May-18 14:16 35.045934 -106.613690 203 5362ft 5kts
06-May-18 14:17 35.045567 -106.619051 271 5362ft 21kts
06-May-18 14:18 35.045291 -106.621338 193 5362ft 0kts
06-May-18 14:19 35.044790 -106.621388 172 5362ft 10kts
06-May-18 14:20 35.044293 -106.593893 90 5409ft 199kts
06-May-18 14:21 35.077164 -106.552382 335 8524ft 222kts
06-May-18 14:22 35.087210 -106.622199 269 11253ft 243kts
06-May-18 14:23 35.086965 -106.712535 270 14209ft 284kts
06-May-18 14:24 35.098795 -106.810671 277 17219ft 311kts
06-May-18 14:25 35.114323 -106.920254 279 19776ft 348kts
06-May-18 14:26 35.132328 -107.037682 279 22835ft 361kts
06-May-18 14:27 35.150503 -107.158130 280 25557ft 373kts
06-May-18 14:28 35.169509 -107.283380 281 28003ft 384kts
06-May-18 14:29 35.190407 -107.411347 281 30353ft 390kts
06-May-18 14:30 35.211117 -107.539137 281 32944ft 381kts
06-May-18 14:31 35.230796 -107.661501 281 35114ft 374kts
06-May-18 14:32 35.250465 -107.785163 281 36365ft 382kts
06-May-18 14:33 35.271363 -107.917415 281 36360ft 411kts
06-May-18 14:34 35.292794 -108.054137 281 36356ft 411kts
06-May-18 14:35 35.314110 -108.191125 281 36355ft 411kts
06-May-18 14:36 35.335314 -108.328413 281 36354ft 411kts
06-May-18 14:37 35.364996 -108.462692 288 36353ft 410kts
06-May-18 14:38 35.401074 -108.595162 288 36353ft 410kts
06-May-18 14:39 35.435598 -108.723612 288 36359ft 411kts
06-May-18 14:40 35.470905 -108.856172 287 36363ft 410kts
06-May-18 14:41 35.482616 -108.994559 274 36372ft 411kts
06-May-18 14:42 35.489040 -109.133910 273 36373ft 410kts
06-May-18 14:43 35.495228 -109.273395 272 36372ft 410kts
06-May-18 14:44 35.501257 -109.408821 273 36372ft 410kts
06-May-18 14:45 35.507601 -109.548543 273 36369ft 410kts
06-May-18 14:46 35.513762 -109.681608 272 36378ft 411kts
06-May-18 14:47 35.520252 -109.820051 272 36376ft 410kts
06-May-18 14:48 35.526943 -109.959142 273 36364ft 411kts
06-May-18 14:49 35.533571 -110.098923 272 36283ft 410kts
06-May-18 14:50 35.538585 -110.238011 272 36236ft 411kts
06-May-18 14:51 35.543124 -110.377576 272 36234ft 410kts
06-May-18 14:52 35.547620 -110.517287 272 36233ft 410kts
06-May-18 14:53 35.552075 -110.652562 271 36233ft 411kts
06-May-18 14:54 35.556700 -110.790842 272 36238ft 410kts
06-May-18 14:55 35.561545 -110.930016 272 36238ft 410kts
06-May-18 14:56 35.566549 -111.068952 271 36237ft 408kts
06-May-18 14:57 35.571684 -111.207630 271 36281ft 407kts
06-May-18 14:58 35.576937 -111.345679 271 36369ft 406kts
06-May-18 14:59 35.582345 -111.484096 272 36388ft 407kts
06-May-18 15:00 35.585547 -111.622158 270 36388ft 406kts
06-May-18 15:01 35.587994 -111.754812 270 36374ft 406kts
06-May-18 15:02 35.590683 -111.892555 270 36356ft 406kts
06-May-18 15:03 35.594866 -112.030749 271 36356ft 407kts
06-May-18 15:03 35.598346 -112.145951 271 36355ft 407kts
06-May-18 15:05 35.603226 -112.306617 271 36354ft 407kts
06-May-18 15:06 35.606938 -112.444621 270 36353ft 406kts
06-May-18 15:07 35.609312 -112.582756 270 36353ft 407kts
06-May-18 15:08 35.611323 -112.717509 270 36361ft 406kts
06-May-18 15:08 35.613011 -112.832203 270 36358ft 405kts
06-May-18 15:09 35.615140 -112.968418 270 34320ft 402kts
06-May-18 15:10 35.617449 -113.105677 269 32044ft 414kts
06-May-18 15:11 35.619935 -113.244335 269 29223ft 400kts
06-May-18 15:12 35.622429 -113.377660 269 27039ft 394kts
06-May-18 15:13 35.625002 -113.508261 268 24408ft 380kts
06-May-18 15:14 35.637824 -113.635876 277 22781ft 371kts
06-May-18 15:15 35.655018 -113.756404 276 21069ft 370kts
06-May-18 15:16 35.672256 -113.878080 276 19326ft 364kts
06-May-18 15:17 35.688918 -113.996569 276 17631ft 358kts
06-May-18 15:18 35.705577 -114.115901 276 15916ft 352kts
06-May-18 15:19 35.721799 -114.232945 276 14222ft 346kts
06-May-18 15:20 35.740538 -114.354997 289 12385ft 394kts
06-May-18 15:21 35.823983 -114.426068 339 11440ft 368kts
06-May-18 15:22 35.917145 -114.467465 338 10812ft 352kts
06-May-18 15:23 36.006865 -114.510569 327 10247ft 343kts
06-May-18 15:24 36.051125 -114.608243 280 9175ft 339kts
06-May-18 15:25 36.070677 -114.718621 279 8089ft 340kts
06-May-18 15:26 36.075434 -114.815356 267 8017ft 239kts
06-May-18 15:27 36.075819 -114.882350 251 6901ft 174kts
06-May-18 15:28 36.074583 -114.942401 267 5534ft 176kts
06-May-18 15:29 36.075663 -115.002049 267 4223ft 173kts
06-May-18 15:30 36.073934 -115.058171 265 3233ft 154kts
06-May-18 15:31 36.073736 -115.110737 267 2509ft 154kts
06-May-18 15:32 36.074187 -115.149313 293 2189ft 31kts
06-May-18 15:33 36.075335 -115.151319 323 2189ft 15kts
06-May-18 15:34 36.079622 -115.151742 357 2189ft 12kts
06-May-18 15:35 36.080499 -115.148854 137 2189ft 12kts
06-May-18 15:37 36.079450 -115.146146 1 2189ft 4kts

Navigation Log

Ident Type
Flight plan parsing failed, navigation log unavailable